sensor_id;sensor_type;location;lat;lon;timestamp;P1;durP1;ratioP1;P2;durP2;ratioP2
16977;SDS011;8605;52.548;4.918;2022-12-10T00:00:25;57.70;;;22.00;;
16977;SDS011;8605;52.548;4.918;2022-12-10T00:05:29;62.50;;;22.63;;
16977;SDS011;8605;52.548;4.918;2022-12-10T00:10:32;50.83;;;20.77;;
16977;SDS011;8605;52.548;4.918;2022-12-10T00:15:35;66.80;;;22.63;;
16977;SDS011;8605;52.548;4.918;2022-12-10T00:20:39;56.10;;;19.53;;
16977;SDS011;8605;52.548;4.918;2022-12-10T00:25:42;64.40;;;21.40;;
16977;SDS011;8605;52.548;4.918;2022-12-10T00:30:44;63.73;;;23.17;;
16977;SDS011;8605;52.548;4.918;2022-12-10T00:35:49;48.33;;;21.07;;
16977;SDS011;8605;52.548;4.918;2022-12-10T00:40:52;50.20;;;20.87;;
16977;SDS011;8605;52.548;4.918;2022-12-10T00:45:55;58.70;;;23.10;;
16977;SDS011;8605;52.548;4.918;2022-12-10T00:50:59;78.53;;;21.27;;
16977;SDS011;8605;52.548;4.918;2022-12-10T00:56:03;52.03;;;18.90;;
16977;SDS011;8605;52.548;4.918;2022-12-10T01:01:08;61.13;;;21.47;;
16977;SDS011;8605;52.548;4.918;2022-12-10T01:06:14;53.87;;;17.47;;
16977;SDS011;8605;52.548;4.918;2022-12-10T01:11:18;65.97;;;19.67;;
16977;SDS011;8605;52.548;4.918;2022-12-10T01:16:22;39.27;;;14.30;;
16977;SDS011;8605;52.548;4.918;2022-12-10T01:21:28;43.20;;;17.77;;
16977;SDS011;8605;52.548;4.918;2022-12-10T01:26:32;61.33;;;19.37;;
16977;SDS011;8605;52.548;4.918;2022-12-10T01:31:36;60.83;;;19.97;;
16977;SDS011;8605;52.548;4.918;2022-12-10T01:36:42;54.53;;;19.70;;
16977;SDS011;8605;52.548;4.918;2022-12-10T01:41:46;47.43;;;16.47;;
16977;SDS011;8605;52.548;4.918;2022-12-10T01:46:52;52.90;;;17.87;;
16977;SDS011;8605;52.548;4.918;2022-12-10T01:51:59;61.63;;;19.83;;
16977;SDS011;8605;52.548;4.918;2022-12-10T01:57:03;63.13;;;19.57;;
16977;SDS011;8605;52.548;4.918;2022-12-10T02:02:09;69.47;;;20.33;;
16977;SDS011;8605;52.548;4.918;2022-12-10T02:07:20;49.40;;;19.03;;
16977;SDS011;8605;52.548;4.918;2022-12-10T02:12:28;59.80;;;18.63;;
16977;SDS011;8605;52.548;4.918;2022-12-10T02:17:36;59.93;;;19.37;;
16977;SDS011;8605;52.548;4.918;2022-12-10T02:22:44;79.63;;;19.53;;
16977;SDS011;8605;52.548;4.918;2022-12-10T02:27:52;59.43;;;20.13;;
16977;SDS011;8605;52.548;4.918;2022-12-10T02:33:01;59.10;;;20.90;;
16977;SDS011;8605;52.548;4.918;2022-12-10T02:38:06;57.97;;;18.97;;
16977;SDS011;8605;52.548;4.918;2022-12-10T02:43:14;50.87;;;17.53;;
16977;SDS011;8605;52.548;4.918;2022-12-10T02:48:20;42.27;;;17.47;;
16977;SDS011;8605;52.548;4.918;2022-12-10T02:53:23;56.10;;;19.73;;
16977;SDS011;8605;52.548;4.918;2022-12-10T02:58:27;43.30;;;15.73;;
16977;SDS011;8605;52.548;4.918;2022-12-10T03:03:40;54.77;;;17.80;;
16977;SDS011;8605;52.548;4.918;2022-12-10T03:08:49;42.20;;;15.33;;
16977;SDS011;8605;52.548;4.918;2022-12-10T03:13:55;51.43;;;16.07;;
16977;SDS011;8605;52.548;4.918;2022-12-10T03:19:04;80.83;;;18.60;;
16977;SDS011;8605;52.548;4.918;2022-12-10T03:24:08;53.17;;;17.57;;
16977;SDS011;8605;52.548;4.918;2022-12-10T03:29:12;56.53;;;18.13;;
16977;SDS011;8605;52.548;4.918;2022-12-10T03:34:19;61.13;;;16.53;;
16977;SDS011;8605;52.548;4.918;2022-12-10T03:39:22;40.77;;;16.33;;
16977;SDS011;8605;52.548;4.918;2022-12-10T03:44:26;60.03;;;19.73;;
16977;SDS011;8605;52.548;4.918;2022-12-10T03:49:32;60.40;;;18.27;;
16977;SDS011;8605;52.548;4.918;2022-12-10T03:54:35;79.30;;;19.67;;
16977;SDS011;8605;52.548;4.918;2022-12-10T03:59:38;87.40;;;26.53;;
16977;SDS011;8605;52.548;4.918;2022-12-10T04:04:42;135.53;;;28.97;;
16977;SDS011;8605;52.548;4.918;2022-12-10T04:09:45;110.87;;;28.47;;
16977;SDS011;8605;52.548;4.918;2022-12-10T04:14:48;83.80;;;26.37;;
16977;SDS011;8605;52.548;4.918;2022-12-10T04:20:10;125.57;;;29.13;;
16977;SDS011;8605;52.548;4.918;2022-12-10T04:25:32;114.93;;;29.83;;
16977;SDS011;8605;52.548;4.918;2022-12-10T04:30:53;96.97;;;27.47;;
16977;SDS011;8605;52.548;4.918;2022-12-10T04:35:58;85.10;;;25.67;;
16977;SDS011;8605;52.548;4.918;2022-12-10T04:41:01;88.07;;;23.77;;
16977;SDS011;8605;52.548;4.918;2022-12-10T04:46:04;85.97;;;23.07;;
16977;SDS011;8605;52.548;4.918;2022-12-10T04:51:08;82.90;;;22.53;;
16977;SDS011;8605;52.548;4.918;2022-12-10T04:56:11;67.70;;;21.50;;
16977;SDS011;8605;52.548;4.918;2022-12-10T05:01:14;96.20;;;24.13;;
16977;SDS011;8605;52.548;4.918;2022-12-10T05:06:18;65.40;;;19.87;;
16977;SDS011;8605;52.548;4.918;2022-12-10T05:11:22;72.73;;;22.77;;
16977;SDS011;8605;52.548;4.918;2022-12-10T05:16:27;71.73;;;23.47;;
16977;SDS011;8605;52.548;4.918;2022-12-10T05:21:32;77.30;;;26.93;;
16977;SDS011;8605;52.548;4.918;2022-12-10T05:26:49;66.60;;;21.73;;
16977;SDS011;8605;52.548;4.918;2022-12-10T05:31:52;43.47;;;18.27;;
16977;SDS011;8605;52.548;4.918;2022-12-10T05:36:57;63.80;;;18.13;;
16977;SDS011;8605;52.548;4.918;2022-12-10T05:41:59;52.50;;;17.37;;
16977;SDS011;8605;52.548;4.918;2022-12-10T05:47:02;49.00;;;18.00;;
16977;SDS011;8605;52.548;4.918;2022-12-10T05:52:07;54.60;;;19.40;;
16977;SDS011;8605;52.548;4.918;2022-12-10T05:57:10;50.33;;;18.77;;
16977;SDS011;8605;52.548;4.918;2022-12-10T06:02:13;61.17;;;21.90;;
16977;SDS011;8605;52.548;4.918;2022-12-10T06:07:18;57.37;;;20.70;;
16977;SDS011;8605;52.548;4.918;2022-12-10T06:12:21;58.83;;;20.60;;
16977;SDS011;8605;52.548;4.918;2022-12-10T06:17:24;50.37;;;19.70;;
16977;SDS011;8605;52.548;4.918;2022-12-10T06:22:28;48.40;;;18.00;;
16977;SDS011;8605;52.548;4.918;2022-12-10T06:27:31;62.40;;;20.53;;
16977;SDS011;8605;52.548;4.918;2022-12-10T06:32:34;52.00;;;20.27;;
16977;SDS011;8605;52.548;4.918;2022-12-10T06:37:38;46.80;;;17.60;;
16977;SDS011;8605;52.548;4.918;2022-12-10T06:42:41;43.27;;;19.30;;
16977;SDS011;8605;52.548;4.918;2022-12-10T06:47:44;55.00;;;17.70;;
16977;SDS011;8605;52.548;4.918;2022-12-10T06:52:49;49.13;;;18.47;;
16977;SDS011;8605;52.548;4.918;2022-12-10T06:57:55;34.13;;;14.70;;
16977;SDS011;8605;52.548;4.918;2022-12-10T07:02:58;40.03;;;15.47;;
16977;SDS011;8605;52.548;4.918;2022-12-10T07:08:02;56.07;;;20.40;;
16977;SDS011;8605;52.548;4.918;2022-12-10T07:13:05;50.73;;;17.73;;
16977;SDS011;8605;52.548;4.918;2022-12-10T07:18:08;58.10;;;19.07;;
16977;SDS011;8605;52.548;4.918;2022-12-10T07:23:13;55.73;;;17.20;;
16977;SDS011;8605;52.548;4.918;2022-12-10T07:28:16;47.77;;;17.93;;
16977;SDS011;8605;52.548;4.918;2022-12-10T07:33:19;44.53;;;17.27;;
16977;SDS011;8605;52.548;4.918;2022-12-10T07:38:23;42.67;;;15.67;;
16977;SDS011;8605;52.548;4.918;2022-12-10T07:43:26;42.43;;;14.83;;
16977;SDS011;8605;52.548;4.918;2022-12-10T07:48:29;41.43;;;15.97;;
16977;SDS011;8605;52.548;4.918;2022-12-10T07:53:33;55.47;;;16.90;;
16977;SDS011;8605;52.548;4.918;2022-12-10T07:58:36;60.03;;;16.87;;
16977;SDS011;8605;52.548;4.918;2022-12-10T08:03:39;42.47;;;15.10;;
16977;SDS011;8605;52.548;4.918;2022-12-10T08:08:43;45.73;;;16.23;;
16977;SDS011;8605;52.548;4.918;2022-12-10T08:13:47;38.97;;;15.53;;
16977;SDS011;8605;52.548;4.918;2022-12-10T08:18:58;66.93;;;19.87;;
16977;SDS011;8605;52.548;4.918;2022-12-10T08:24:05;52.77;;;14.53;;
16977;SDS011;8605;52.548;4.918;2022-12-10T08:29:08;53.37;;;14.80;;
16977;SDS011;8605;52.548;4.918;2022-12-10T08:34:11;56.57;;;16.77;;
16977;SDS011;8605;52.548;4.918;2022-12-10T08:39:17;44.63;;;15.87;;
16977;SDS011;8605;52.548;4.918;2022-12-10T08:44:19;56.50;;;16.40;;
16977;SDS011;8605;52.548;4.918;2022-12-10T08:49:22;57.13;;;17.77;;
16977;SDS011;8605;52.548;4.918;2022-12-10T08:54:27;39.87;;;15.43;;
16977;SDS011;8605;52.548;4.918;2022-12-10T08:59:30;53.30;;;16.70;;
16977;SDS011;8605;52.548;4.918;2022-12-10T09:04:32;50.63;;;17.83;;
16977;SDS011;8605;52.548;4.918;2022-12-10T09:09:37;53.57;;;17.20;;
16977;SDS011;8605;52.548;4.918;2022-12-10T09:14:40;54.67;;;19.97;;
16977;SDS011;8605;52.548;4.918;2022-12-10T09:19:43;52.50;;;15.83;;
16977;SDS011;8605;52.548;4.918;2022-12-10T09:24:47;49.73;;;18.20;;
16977;SDS011;8605;52.548;4.918;2022-12-10T09:29:50;50.30;;;18.90;;
16977;SDS011;8605;52.548;4.918;2022-12-10T09:34:53;44.20;;;16.80;;
16977;SDS011;8605;52.548;4.918;2022-12-10T09:39:57;40.73;;;15.17;;
16977;SDS011;8605;52.548;4.918;2022-12-10T09:45:01;45.57;;;18.30;;
16977;SDS011;8605;52.548;4.918;2022-12-10T09:50:09;64.97;;;19.50;;
16977;SDS011;8605;52.548;4.918;2022-12-10T09:55:19;45.63;;;15.63;;
16977;SDS011;8605;52.548;4.918;2022-12-10T10:00:25;56.77;;;20.33;;
16977;SDS011;8605;52.548;4.918;2022-12-10T10:05:35;43.23;;;15.70;;
16977;SDS011;8605;52.548;4.918;2022-12-10T10:10:41;48.77;;;16.97;;
16977;SDS011;8605;52.548;4.918;2022-12-10T10:15:44;48.77;;;16.90;;
16977;SDS011;8605;52.548;4.918;2022-12-10T10:20:48;42.40;;;17.13;;
16977;SDS011;8605;52.548;4.918;2022-12-10T10:25:53;56.60;;;18.30;;
16977;SDS011;8605;52.548;4.918;2022-12-10T10:30:55;51.87;;;16.67;;
16977;SDS011;8605;52.548;4.918;2022-12-10T10:35:58;47.30;;;19.80;;
16977;SDS011;8605;52.548;4.918;2022-12-10T10:41:03;58.27;;;16.97;;
16977;SDS011;8605;52.548;4.918;2022-12-10T10:46:10;51.23;;;19.30;;
16977;SDS011;8605;52.548;4.918;2022-12-10T10:51:15;53.13;;;18.63;;
16977;SDS011;8605;52.548;4.918;2022-12-10T10:56:23;48.83;;;16.93;;
16977;SDS011;8605;52.548;4.918;2022-12-10T11:01:42;46.87;;;16.23;;
16977;SDS011;8605;52.548;4.918;2022-12-10T11:06:46;44.37;;;17.33;;
16977;SDS011;8605;52.548;4.918;2022-12-10T11:11:51;47.17;;;16.10;;
16977;SDS011;8605;52.548;4.918;2022-12-10T11:16:59;55.77;;;18.90;;
16977;SDS011;8605;52.548;4.918;2022-12-10T11:22:16;66.17;;;19.60;;
16977;SDS011;8605;52.548;4.918;2022-12-10T11:27:31;52.67;;;18.80;;
16977;SDS011;8605;52.548;4.918;2022-12-10T11:32:46;52.37;;;18.17;;
16977;SDS011;8605;52.548;4.918;2022-12-10T11:37:57;47.50;;;18.67;;
16977;SDS011;8605;52.548;4.918;2022-12-10T11:43:16;40.33;;;18.47;;
16977;SDS011;8605;52.548;4.918;2022-12-10T11:48:30;55.97;;;19.23;;
16977;SDS011;8605;52.548;4.918;2022-12-10T11:53:47;39.33;;;16.80;;
16977;SDS011;8605;52.548;4.918;2022-12-10T11:59:09;54.27;;;18.47;;
16977;SDS011;8605;52.548;4.918;2022-12-10T12:04:23;39.03;;;17.17;;
16977;SDS011;8605;52.548;4.918;2022-12-10T12:09:30;51.37;;;18.90;;
16977;SDS011;8605;52.548;4.918;2022-12-10T12:14:42;46.60;;;19.03;;
16977;SDS011;8605;52.548;4.918;2022-12-10T12:19:47;40.73;;;16.33;;
16977;SDS011;8605;52.548;4.918;2022-12-10T12:24:52;49.57;;;19.63;;
16977;SDS011;8605;52.548;4.918;2022-12-10T12:30:00;56.63;;;19.37;;
16977;SDS011;8605;52.548;4.918;2022-12-10T12:35:10;63.03;;;19.47;;
16977;SDS011;8605;52.548;4.918;2022-12-10T12:40:16;48.00;;;17.53;;
16977;SDS011;8605;52.548;4.918;2022-12-10T12:45:33;40.70;;;15.43;;
16977;SDS011;8605;52.548;4.918;2022-12-10T12:50:41;41.47;;;16.57;;
16977;SDS011;8605;52.548;4.918;2022-12-10T12:55:47;42.87;;;18.33;;
16977;SDS011;8605;52.548;4.918;2022-12-10T13:00:57;39.23;;;15.17;;
16977;SDS011;8605;52.548;4.918;2022-12-10T13:06:14;48.47;;;17.10;;
16977;SDS011;8605;52.548;4.918;2022-12-10T13:17:30;47.47;;;17.83;;
16977;SDS011;8605;52.548;4.918;2022-12-10T13:22:42;53.13;;;19.57;;
16977;SDS011;8605;52.548;4.918;2022-12-10T13:27:54;47.77;;;17.90;;
16977;SDS011;8605;52.548;4.918;2022-12-10T13:38:24;44.27;;;19.73;;
16977;SDS011;8605;52.548;4.918;2022-12-10T13:43:28;43.60;;;18.30;;
16977;SDS011;8605;52.548;4.918;2022-12-10T13:48:57;44.97;;;17.67;;
16977;SDS011;8605;52.548;4.918;2022-12-10T13:54:04;31.53;;;14.60;;
16977;SDS011;8605;52.548;4.918;2022-12-10T13:59:28;49.10;;;15.53;;
16977;SDS011;8605;52.548;4.918;2022-12-10T14:04:41;37.63;;;16.57;;
16977;SDS011;8605;52.548;4.918;2022-12-10T14:09:50;50.13;;;20.43;;
16977;SDS011;8605;52.548;4.918;2022-12-10T14:14:54;47.80;;;18.23;;
16977;SDS011;8605;52.548;4.918;2022-12-10T14:20:00;49.23;;;19.37;;
16977;SDS011;8605;52.548;4.918;2022-12-10T14:25:10;43.57;;;18.43;;
16977;SDS011;8605;52.548;4.918;2022-12-10T14:30:16;53.30;;;21.90;;
16977;SDS011;8605;52.548;4.918;2022-12-10T14:35:22;50.17;;;20.13;;
16977;SDS011;8605;52.548;4.918;2022-12-10T14:40:28;50.70;;;22.10;;
16977;SDS011;8605;52.548;4.918;2022-12-10T14:45:38;44.13;;;18.83;;
16977;SDS011;8605;52.548;4.918;2022-12-10T14:50:46;55.60;;;20.07;;
16977;SDS011;8605;52.548;4.918;2022-12-10T14:55:50;67.53;;;21.40;;
16977;SDS011;8605;52.548;4.918;2022-12-10T15:00:55;62.13;;;20.73;;
16977;SDS011;8605;52.548;4.918;2022-12-10T15:06:00;66.07;;;21.77;;
16977;SDS011;8605;52.548;4.918;2022-12-10T15:11:04;61.30;;;22.30;;
16977;SDS011;8605;52.548;4.918;2022-12-10T15:16:13;63.03;;;20.23;;
16977;SDS011;8605;52.548;4.918;2022-12-10T15:21:21;63.60;;;20.70;;
16977;SDS011;8605;52.548;4.918;2022-12-10T15:26:27;51.03;;;20.27;;
16977;SDS011;8605;52.548;4.918;2022-12-10T15:31:31;68.10;;;20.63;;
16977;SDS011;8605;52.548;4.918;2022-12-10T15:36:36;64.67;;;23.23;;
16977;SDS011;8605;52.548;4.918;2022-12-10T15:41:42;66.13;;;22.13;;
16977;SDS011;8605;52.548;4.918;2022-12-10T15:46:46;62.57;;;22.80;;
16977;SDS011;8605;52.548;4.918;2022-12-10T15:51:52;64.47;;;20.50;;
16977;SDS011;8605;52.548;4.918;2022-12-10T15:56:54;52.53;;;20.70;;
16977;SDS011;8605;52.548;4.918;2022-12-10T16:01:57;58.37;;;19.30;;
16977;SDS011;8605;52.548;4.918;2022-12-10T16:07:03;55.60;;;19.97;;
16977;SDS011;8605;52.548;4.918;2022-12-10T16:12:06;38.37;;;16.53;;
16977;SDS011;8605;52.548;4.918;2022-12-10T16:17:10;57.60;;;19.67;;
16977;SDS011;8605;52.548;4.918;2022-12-10T16:22:14;57.03;;;18.60;;
16977;SDS011;8605;52.548;4.918;2022-12-10T16:27:17;50.63;;;18.03;;
16977;SDS011;8605;52.548;4.918;2022-12-10T16:32:20;48.30;;;18.90;;
16977;SDS011;8605;52.548;4.918;2022-12-10T16:37:24;67.30;;;19.23;;
16977;SDS011;8605;52.548;4.918;2022-12-10T16:42:27;54.43;;;19.37;;
16977;SDS011;8605;52.548;4.918;2022-12-10T16:47:29;64.90;;;17.73;;
16977;SDS011;8605;52.548;4.918;2022-12-10T16:52:34;51.20;;;17.60;;
16977;SDS011;8605;52.548;4.918;2022-12-10T16:57:36;48.03;;;18.60;;
16977;SDS011;8605;52.548;4.918;2022-12-10T17:02:41;43.77;;;18.97;;
16977;SDS011;8605;52.548;4.918;2022-12-10T17:07:46;49.70;;;19.23;;
16977;SDS011;8605;52.548;4.918;2022-12-10T17:12:48;61.63;;;21.23;;
16977;SDS011;8605;52.548;4.918;2022-12-10T17:17:51;53.80;;;20.63;;
16977;SDS011;8605;52.548;4.918;2022-12-10T17:22:56;51.07;;;18.33;;
16977;SDS011;8605;52.548;4.918;2022-12-10T17:27:59;55.37;;;21.83;;
16977;SDS011;8605;52.548;4.918;2022-12-10T17:33:02;50.83;;;19.47;;
16977;SDS011;8605;52.548;4.918;2022-12-10T17:38:07;56.20;;;20.37;;
16977;SDS011;8605;52.548;4.918;2022-12-10T17:43:15;54.93;;;21.37;;
16977;SDS011;8605;52.548;4.918;2022-12-10T17:48:18;50.20;;;19.97;;
16977;SDS011;8605;52.548;4.918;2022-12-10T17:53:23;54.27;;;21.27;;
16977;SDS011;8605;52.548;4.918;2022-12-10T17:58:28;60.00;;;18.93;;
16977;SDS011;8605;52.548;4.918;2022-12-10T18:03:31;58.90;;;21.77;;
16977;SDS011;8605;52.548;4.918;2022-12-10T18:08:35;67.17;;;23.47;;
16977;SDS011;8605;52.548;4.918;2022-12-10T18:13:38;54.37;;;20.53;;
16977;SDS011;8605;52.548;4.918;2022-12-10T18:18:48;57.90;;;20.23;;
16977;SDS011;8605;52.548;4.918;2022-12-10T18:23:52;57.50;;;21.93;;
16977;SDS011;8605;52.548;4.918;2022-12-10T18:28:56;77.87;;;26.07;;
16977;SDS011;8605;52.548;4.918;2022-12-10T18:34:00;62.27;;;21.50;;
16977;SDS011;8605;52.548;4.918;2022-12-10T18:39:07;67.17;;;23.43;;
16977;SDS011;8605;52.548;4.918;2022-12-10T18:44:16;67.67;;;21.50;;
16977;SDS011;8605;52.548;4.918;2022-12-10T18:49:22;75.57;;;25.47;;
16977;SDS011;8605;52.548;4.918;2022-12-10T18:54:27;44.87;;;19.57;;
16977;SDS011;8605;52.548;4.918;2022-12-10T18:59:30;71.43;;;24.20;;
16977;SDS011;8605;52.548;4.918;2022-12-10T19:04:33;83.33;;;24.33;;
16977;SDS011;8605;52.548;4.918;2022-12-10T19:09:37;73.47;;;23.23;;
16977;SDS011;8605;52.548;4.918;2022-12-10T19:14:40;84.53;;;24.80;;
16977;SDS011;8605;52.548;4.918;2022-12-10T19:19:43;69.20;;;25.00;;
16977;SDS011;8605;52.548;4.918;2022-12-10T19:24:47;71.47;;;26.00;;
16977;SDS011;8605;52.548;4.918;2022-12-10T19:29:50;82.83;;;23.27;;
16977;SDS011;8605;52.548;4.918;2022-12-10T19:34:53;81.77;;;26.73;;
16977;SDS011;8605;52.548;4.918;2022-12-10T19:39:57;81.43;;;26.27;;
16977;SDS011;8605;52.548;4.918;2022-12-10T19:45:00;72.53;;;24.43;;
16977;SDS011;8605;52.548;4.918;2022-12-10T19:50:03;66.03;;;24.43;;
16977;SDS011;8605;52.548;4.918;2022-12-10T19:55:09;65.67;;;23.90;;
16977;SDS011;8605;52.548;4.918;2022-12-10T20:00:13;62.17;;;24.90;;
16977;SDS011;8605;52.548;4.918;2022-12-10T20:05:18;66.97;;;24.77;;
16977;SDS011;8605;52.548;4.918;2022-12-10T20:10:24;63.13;;;23.97;;
16977;SDS011;8605;52.548;4.918;2022-12-10T20:15:28;69.80;;;28.00;;
16977;SDS011;8605;52.548;4.918;2022-12-10T20:20:31;78.37;;;26.03;;
16977;SDS011;8605;52.548;4.918;2022-12-10T20:25:35;75.13;;;26.20;;
16977;SDS011;8605;52.548;4.918;2022-12-10T20:30:38;69.97;;;25.53;;
16977;SDS011;8605;52.548;4.918;2022-12-10T20:35:41;69.60;;;24.97;;
16977;SDS011;8605;52.548;4.918;2022-12-10T20:40:45;64.63;;;20.97;;
16977;SDS011;8605;52.548;4.918;2022-12-10T20:45:48;58.90;;;18.97;;
16977;SDS011;8605;52.548;4.918;2022-12-10T20:50:51;67.37;;;24.60;;
16977;SDS011;8605;52.548;4.918;2022-12-10T20:55:55;69.73;;;23.00;;
16977;SDS011;8605;52.548;4.918;2022-12-10T21:00:58;78.67;;;25.03;;
16977;SDS011;8605;52.548;4.918;2022-12-10T21:06:01;46.90;;;22.67;;
16977;SDS011;8605;52.548;4.918;2022-12-10T21:11:06;57.17;;;21.37;;
16977;SDS011;8605;52.548;4.918;2022-12-10T21:16:10;61.10;;;21.90;;
16977;SDS011;8605;52.548;4.918;2022-12-10T21:21:15;61.40;;;22.10;;
16977;SDS011;8605;52.548;4.918;2022-12-10T21:26:19;81.47;;;26.23;;
16977;SDS011;8605;52.548;4.918;2022-12-10T21:31:23;61.50;;;23.30;;
16977;SDS011;8605;52.548;4.918;2022-12-10T21:36:26;68.53;;;21.37;;
16977;SDS011;8605;52.548;4.918;2022-12-10T21:41:31;59.40;;;22.03;;
16977;SDS011;8605;52.548;4.918;2022-12-10T21:46:51;47.90;;;18.90;;
16977;SDS011;8605;52.548;4.918;2022-12-10T21:51:56;64.77;;;24.37;;
16977;SDS011;8605;52.548;4.918;2022-12-10T21:57:00;56.63;;;21.30;;
16977;SDS011;8605;52.548;4.918;2022-12-10T22:02:03;57.90;;;19.93;;
16977;SDS011;8605;52.548;4.918;2022-12-10T22:07:06;48.10;;;19.20;;
16977;SDS011;8605;52.548;4.918;2022-12-10T22:12:10;61.37;;;21.47;;
16977;SDS011;8605;52.548;4.918;2022-12-10T22:17:13;51.07;;;18.00;;
16977;SDS011;8605;52.548;4.918;2022-12-10T22:22:16;59.83;;;22.30;;
16977;SDS011;8605;52.548;4.918;2022-12-10T22:27:20;63.43;;;24.50;;
16977;SDS011;8605;52.548;4.918;2022-12-10T22:32:23;70.30;;;24.40;;
16977;SDS011;8605;52.548;4.918;2022-12-10T22:37:26;60.90;;;23.17;;
16977;SDS011;8605;52.548;4.918;2022-12-10T22:42:30;54.63;;;22.43;;
16977;SDS011;8605;52.548;4.918;2022-12-10T22:47:33;68.60;;;22.70;;
16977;SDS011;8605;52.548;4.918;2022-12-10T22:52:36;63.83;;;24.53;;
16977;SDS011;8605;52.548;4.918;2022-12-10T22:57:40;63.90;;;24.97;;
16977;SDS011;8605;52.548;4.918;2022-12-10T23:02:43;57.07;;;21.13;;
16977;SDS011;8605;52.548;4.918;2022-12-10T23:07:46;59.87;;;22.40;;
16977;SDS011;8605;52.548;4.918;2022-12-10T23:12:50;58.67;;;23.83;;
16977;SDS011;8605;52.548;4.918;2022-12-10T23:18:08;62.03;;;23.97;;
16977;SDS011;8605;52.548;4.918;2022-12-10T23:23:12;58.40;;;19.53;;
16977;SDS011;8605;52.548;4.918;2022-12-10T23:28:17;53.00;;;19.53;;
16977;SDS011;8605;52.548;4.918;2022-12-10T23:33:21;60.70;;;24.17;;
16977;SDS011;8605;52.548;4.918;2022-12-10T23:38:24;61.33;;;20.60;;
16977;SDS011;8605;52.548;4.918;2022-12-10T23:43:28;62.40;;;22.87;;
16977;SDS011;8605;52.548;4.918;2022-12-10T23:48:31;63.10;;;22.23;;
16977;SDS011;8605;52.548;4.918;2022-12-10T23:53:34;53.90;;;20.70;;
16977;SDS011;8605;52.548;4.918;2022-12-10T23:58:38;60.43;;;20.83;;
